LELC Airport Information

Runway Information
Runway 05 Length 7546 ft width 197 ft
Elevation 11 ft Threshold 0 ft Heading 46
Runway 23 Length 7546 ft Width 197 ft
Elevation 5 ft Threshold 0 ft Heading 226
Runway 05L Length 2867 ft width 197 ft
Elevation 0 ft Threshold 0 ft Heading 46
Runway 23R Length 2867 ft Width 197 ft
Elevation 0 ft Threshold 0 ft Heading 226
Runway 14 Length 2625 ft width 197 ft
Elevation 0 ft Threshold 0 ft Heading 136
Runway 32 Length 2625 ft Width 197 ft
Elevation 0 ft Threshold 0 ft Heading 316
Airport Frequencies
Type APP Name SAN JAVIER Frequency 130.3 MHZ
Type GND Name SAN JAVIER Frequency 121.6 MHZ
Type TWR Name SAN JAVIER Frequency 130.3 MHZ
Airport Navaids
Type NDB Name Murcia/San Javier Frequency 381 KHZ
Type NDB Name Murcia/San Javier Frequency 370 KHZ
Type TACAN Name Murcia/San Javier Frequency 113000 KHZ
Type VOR-DME Name Murcia/San Javier Frequency 113000 KHZ
Airport Weather Information & NOTAM
ADDS - METARS form results

(0327 UTC 19 August 2018)
 
METAR text: LELC 190300Z AUTO 06009KT 020V100 9999 SCT024/// SCT030/// 26/21 Q1019
Conditions at: LELC (SAN JAVIER(MIL/C, ES) observed 0300 UTC 19 August 2018
Temperature: 26.0°C (79°F)
Dewpoint: 21.0°C (70°F) [RH = 74%]
Pressure (altimeter): 30.09 inches Hg (1019.0 mb)
Winds: from the ENE (60 degrees) at 10 MPH (9 knots; 4.7 m/s)
Visibility: 6 or more miles (10+ km)
Ceiling: at least 12,000 feet AGL
Clouds: scattered clouds at 2400 feet AGL
scattered clouds at 3000 feet AGL
Weather: no significant weather observed at this time

METAR text: LELC 190230Z AUTO 06009KT 030V090 9999 BKN027/// BKN036/// BKN042/// 26/21 Q1018
Conditions at: LELC (SAN JAVIER(MIL/C, ES) observed 0230 UTC 19 August 2018
Temperature: 26.0°C (79°F)
Dewpoint: 21.0°C (70°F) [RH = 74%]
Pressure (altimeter): 30.06 inches Hg (1018.0 mb)
Winds: from the ENE (60 degrees) at 10 MPH (9 knots; 4.7 m/s)
Visibility: 6 or more miles (10+ km)
Ceiling: 2700 feet AGL
Clouds: broken clouds at 2700 feet AGL
broken clouds at 3600 feet AGL
broken clouds at 4200 feet AGL
Weather: no significant weather observed at this time